Time;durP1;ratioP1;P1;durP2;ratioP2;P2;SDS_P1;SDS_P2;PMS_P1;PMS_P2;Temp;Humidity;BMP_temperature;BMP_pressure;BME280_temperature;BME280_humidity;BME280_pressure;Samples;Min_cycle;Max_cycle;Signal;HPM_P1;HPM_P2
2023/10/16 00:01:16;;;;;;;1.13;0.88;;;15.50;99.90;;;;;;5074483;28;20016;-73
2023/10/16 00:03:42;;;;;;;0.70;0.70;;;15.50;99.90;;;;;;5092712;28;20031;-73
2023/10/16 00:06:12;;;;;;;0.80;0.80;;;15.50;99.90;;;;;;5096194;28;20027;-73
2023/10/16 00:08:48;;;;;;;0.95;0.90;;;15.40;99.90;;;;;;5104463;28;20074;-73
2023/10/16 00:11:18;;;;;;;0.98;0.98;;;15.50;99.90;;;;;;5099806;28;20077;-73
2023/10/16 00:13:47;;;;;;;0.75;0.75;;;15.50;99.90;;;;;;5096868;28;20062;-73
2023/10/16 00:16:17;;;;;;;0.88;0.88;;;15.50;99.90;;;;;;5100562;28;20050;-73
2023/10/16 00:18:45;;;;;;;0.90;0.90;;;15.60;99.90;;;;;;5092629;28;20436;-73
2023/10/16 00:21:13;;;;;;;1.58;0.90;;;15.50;99.90;;;;;;5092300;28;20107;-73
2023/10/16 00:23:39;;;;;;;0.63;0.63;;;15.50;99.90;;;;;;5103362;28;20496;-73
2023/10/16 00:26:06;;;;;;;0.68;0.68;;;15.50;99.90;;;;;;5098707;28;20414;-73
2023/10/16 00:28:34;;;;;;;1.20;0.88;;;15.50;99.90;;;;;;5103891;28;20120;-72
2023/10/16 00:31:00;;;;;;;0.60;0.60;;;15.50;99.90;;;;;;5095802;28;20036;-73
2023/10/16 00:33:25;;;;;;;1.30;1.05;;;15.50;99.90;;;;;;5087678;28;20040;-73
2023/10/16 00:35:51;;;;;;;0.95;0.95;;;15.50;99.90;;;;;;5101565;28;20592;-73
2023/10/16 00:38:19;;;;;;;2.25;1.00;;;15.60;99.90;;;;;;5103833;28;20020;-73
2023/10/16 00:40:52;;;;;;;0.80;0.80;;;15.60;99.90;;;;;;5081457;28;20398;-73
2023/10/16 00:43:22;;;;;;;0.93;0.90;;;15.50;99.90;;;;;;5092071;28;20102;-73
2023/10/16 00:45:50;;;;;;;1.40;0.80;;;15.50;99.90;;;;;;5092117;28;20059;-73
2023/10/16 00:48:19;;;;;;;1.67;1.23;;;15.30;99.90;;;;;;5099408;28;20149;-73
2023/10/16 00:50:48;;;;;;;0.88;0.88;;;15.30;99.90;;;;;;5102958;28;20392;-73
2023/10/16 00:53:17;;;;;;;1.08;1.08;;;15.30;99.90;;;;;;5080465;28;20021;-73
2023/10/16 00:55:42;;;;;;;0.77;0.77;;;15.40;99.90;;;;;;5095716;28;20539;-73
2023/10/16 00:58:08;;;;;;;1.00;0.93;;;15.40;99.90;;;;;;5099986;28;20020;-73
2023/10/16 01:00:37;;;;;;;1.30;1.20;;;15.40;99.90;;;;;;5085294;28;20119;-73
2023/10/16 01:03:05;;;;;;;1.75;1.20;;;15.40;99.90;;;;;;5099029;28;20483;-73
2023/10/16 01:05:33;;;;;;;2.75;0.90;;;15.50;99.90;;;;;;5091435;28;20103;-73
2023/10/16 01:08:02;;;;;;;2.22;1.00;;;15.40;99.90;;;;;;5091567;28;20128;-73
2023/10/16 01:10:32;;;;;;;1.13;1.02;;;15.50;99.90;;;;;;5087877;28;20356;-73
2023/10/16 01:12:59;;;;;;;3.80;0.95;;;15.50;99.90;;;;;;5102537;28;20026;-74
2023/10/16 01:15:25;;;;;;;1.85;0.75;;;15.50;99.90;;;;;;5101925;28;20028;-74
2023/10/16 01:17:52;;;;;;;2.28;0.98;;;15.40;99.90;;;;;;5100441;28;20483;-74
2023/10/16 01:20:21;;;;;;;1.27;1.10;;;15.40;99.90;;;;;;5094992;28;20012;-74
2023/10/16 01:22:47;;;;;;;1.13;1.02;;;15.40;99.90;;;;;;5102204;28;20031;-74
2023/10/16 01:25:15;;;;;;;1.45;1.00;;;15.30;99.90;;;;;;5101327;28;20024;-74
2023/10/16 01:27:42;;;;;;;1.08;1.00;;;15.30;99.90;;;;;;5082024;28;20024;-73
2023/10/16 01:30:09;;;;;;;1.10;1.05;;;15.30;99.90;;;;;;5091475;28;20391;-74
2023/10/16 01:32:38;;;;;;;1.10;1.10;;;15.20;99.90;;;;;;5091854;28;20100;-74
2023/10/16 01:35:08;;;;;;;1.48;0.80;;;15.30;99.90;;;;;;5111582;28;20123;-74
2023/10/16 01:37:38;;;;;;;1.70;1.02;;;15.30;99.90;;;;;;5102006;28;20490;-74
2023/10/16 01:40:21;;;;;;;0.90;0.90;;;15.10;99.90;;;;;;5111386;28;20098;-73
2023/10/16 01:42:53;;;;;;;2.15;0.88;;;15.10;99.90;;;;;;5109976;28;20042;-74
2023/10/16 01:45:23;;;;;;;1.17;1.08;;;15.10;99.90;;;;;;5111365;28;20027;-73
2023/10/16 01:47:48;;;;;;;1.13;1.05;;;15.00;99.90;;;;;;5111225;28;20499;-73
2023/10/16 01:50:21;;;;;;;1.00;0.80;;;15.00;99.90;;;;;;5111372;28;20138;-74
2023/10/16 01:52:48;;;;;;;0.80;0.80;;;15.10;99.90;;;;;;5111609;28;20028;-73
2023/10/16 01:55:17;;;;;;;1.63;0.88;;;15.10;99.90;;;;;;5107583;28;20026;-74
2023/10/16 01:57:47;;;;;;;2.40;1.13;;;15.10;99.90;;;;;;5111077;28;20104;-74
2023/10/16 02:00:17;;;;;;;3.22;0.93;;;15.10;99.90;;;;;;5111337;28;20015;-74
2023/10/16 02:02:43;;;;;;;0.93;0.80;;;15.00;99.90;;;;;;5111369;28;20028;-74
2023/10/16 02:05:13;;;;;;;1.95;0.90;;;15.00;99.90;;;;;;5101996;28;20031;-73
2023/10/16 02:07:41;;;;;;;0.82;0.73;;;15.00;99.90;;;;;;5111151;28;20024;-73
2023/10/16 02:10:12;;;;;;;0.60;0.60;;;15.00;99.90;;;;;;5111235;28;20023;-74
2023/10/16 02:12:39;;;;;;;1.95;0.77;;;15.00;99.90;;;;;;5111342;28;20020;-73
2023/10/16 02:15:07;;;;;;;1.08;0.98;;;14.90;99.90;;;;;;5115418;28;20432;-73
2023/10/16 02:17:33;;;;;;;2.03;0.80;;;14.90;99.90;;;;;;5105827;28;20047;-74
2023/10/16 02:19:59;;;;;;;0.73;0.73;;;14.90;99.90;;;;;;5115113;28;20055;-74
2023/10/16 02:22:24;;;;;;;0.77;0.50;;;14.90;99.90;;;;;;5114834;28;20024;-73
2023/10/16 02:24:50;;;;;;;0.63;0.63;;;14.80;99.90;;;;;;5113760;28;20027;-73
2023/10/16 02:27:18;;;;;;;2.75;0.70;;;14.80;99.90;;;;;;5114755;28;20103;-73
2023/10/16 02:29:49;;;;;;;0.80;0.80;;;14.70;99.90;;;;;;5114846;28;20027;-73
2023/10/16 02:32:15;;;;;;;1.03;0.80;;;14.60;99.90;;;;;;5114854;28;20270;-73
2023/10/16 02:34:41;;;;;;;0.80;0.80;;;14.50;99.90;;;;;;5096593;28;20054;-74
2023/10/16 02:37:09;;;;;;;0.75;0.70;;;14.60;99.90;;;;;;5114716;28;20020;-73
2023/10/16 02:39:35;;;;;;;0.60;0.60;;;14.60;99.90;;;;;;5114854;28;20112;-73
2023/10/16 02:42:06;;;;;;;1.13;0.52;;;14.60;99.90;;;;;;5114419;28;20012;-73
2023/10/16 02:44:33;;;;;;;2.17;0.82;;;14.60;99.90;;;;;;5114574;28;20032;-73
2023/10/16 02:46:59;;;;;;;1.02;0.77;;;14.70;99.90;;;;;;5114775;28;20076;-74
2023/10/16 02:49:25;;;;;;;0.77;0.60;;;14.60;99.90;;;;;;5114550;28;20035;-74
2023/10/16 02:51:52;;;;;;;3.20;0.70;;;14.60;99.90;;;;;;5114336;28;20091;-73
2023/10/16 02:54:18;;;;;;;0.60;0.60;;;14.60;99.90;;;;;;5114471;28;20020;-74
2023/10/16 02:56:44;;;;;;;0.50;0.50;;;14.60;99.90;;;;;;5114175;28;20027;-74
2023/10/16 02:59:11;;;;;;;0.60;0.60;;;14.60;99.90;;;;;;5114559;28;20072;-73
2023/10/16 03:01:37;;;;;;;0.55;0.55;;;14.60;99.90;;;;;;5114161;28;20019;-74
2023/10/16 03:04:05;;;;;;;0.55;0.55;;;14.70;99.90;;;;;;5114449;28;20413;-73
2023/10/16 03:06:31;;;;;;;1.08;0.47;;;14.70;99.90;;;;;;5114146;28;20034;-73
2023/10/16 03:09:15;;;;;;;3.60;0.60;;;14.70;99.90;;;;;;5114423;28;20581;-73
2023/10/16 03:11:42;;;;;;;0.80;0.57;;;14.60;99.90;;;;;;5092757;28;20051;-74
2023/10/16 03:14:07;;;;;;;0.50;0.50;;;14.60;99.90;;;;;;5114160;28;20500;-73
2023/10/16 03:16:36;;;;;;;0.85;0.70;;;14.60;99.90;;;;;;5114097;28;20466;-73
2023/10/16 03:19:21;;;;;;;1.42;0.50;;;14.60;99.90;;;;;;5113354;28;20116;-73
2023/10/16 03:21:50;;;;;;;0.80;0.43;;;14.60;99.90;;;;;;5112852;28;20030;-73
2023/10/16 03:24:19;;;;;;;0.85;0.65;;;14.60;99.90;;;;;;5113218;28;20071;-74
2023/10/16 03:26:47;;;;;;;0.50;0.40;;;14.50;99.90;;;;;;5113714;28;20042;-74
2023/10/16 03:29:13;;;;;;;1.05;0.80;;;14.50;99.90;;;;;;5109322;28;20007;-73
2023/10/16 03:31:39;;;;;;;0.50;0.50;;;14.40;99.90;;;;;;5095423;28;20102;-73
2023/10/16 03:34:08;;;;;;;0.75;0.45;;;14.50;99.90;;;;;;5112905;28;20123;-73
2023/10/16 03:36:35;;;;;;;1.80;0.68;;;14.50;99.90;;;;;;5087006;28;20020;-73
2023/10/16 03:39:03;;;;;;;0.50;0.40;;;14.50;99.90;;;;;;5110362;28;20592;-73
2023/10/16 03:41:32;;;;;;;0.95;0.40;;;14.50;99.90;;;;;;5095086;28;20390;-73
2023/10/16 03:44:07;;;;;;;0.50;0.40;;;14.50;99.90;;;;;;5113179;28;20050;-73
2023/10/16 03:46:33;;;;;;;1.33;0.60;;;14.50;99.90;;;;;;5113567;28;20023;-73
2023/10/16 03:49:00;;;;;;;0.50;0.40;;;14.60;99.90;;;;;;5094859;28;20066;-74
2023/10/16 03:51:26;;;;;;;1.30;0.57;;;14.60;99.90;;;;;;5112718;28;20443;-74
2023/10/16 03:53:56;;;;;;;0.70;0.70;;;14.60;99.90;;;;;;5113375;28;20382;-74
2023/10/16 03:56:22;;;;;;;0.50;0.50;;;14.50;99.90;;;;;;5091083;28;20528;-74
2023/10/16 03:58:48;;;;;;;0.93;0.50;;;14.50;99.90;;;;;;5113276;28;20028;-73
2023/10/16 04:01:20;;;;;;;0.50;0.50;;;14.50;99.90;;;;;;5113216;28;20228;-73
2023/10/16 04:03:46;;;;;;;1.13;0.60;;;14.50;99.90;;;;;;5113011;28;20024;-73
2023/10/16 04:06:20;;;;;;;1.17;0.40;;;14.50;99.90;;;;;;5113171;28;20504;-74
2023/10/16 04:08:49;;;;;;;0.65;0.60;;;14.40;99.90;;;;;;5112659;28;20023;-72
2023/10/16 04:11:16;;;;;;;0.40;0.40;;;14.40;99.90;;;;;;5112676;28;20486;-73
2023/10/16 04:13:47;;;;;;;0.90;0.50;;;14.40;99.90;;;;;;5112341;28;20432;-74
2023/10/16 04:16:42;;;;;;;0.98;0.63;;;14.50;99.90;;;;;;5109583;28;20386;-73
2023/10/16 04:21:43;;;;;;;0.50;0.50;;;14.40;99.90;;;;;;5112963;28;20024;-73
2023/10/16 04:29:34;;;;;;;1.05;0.57;;;14.40;99.90;;;;;;5108603;28;20470;-73
2023/10/16 04:34:32;;;;;;;2.45;0.50;;;14.30;99.90;;;;;;5109204;28;20079;-73
2023/10/16 04:53:09;;;;;;;0.38;0.38;;;14.20;99.90;;;;;;5109068;28;20023;-73
2023/10/16 05:11:32;;;;;;;1.48;0.70;;;14.10;99.90;;;;;;5111684;28;20024;-73
2023/10/16 05:16:47;;;;;;;3.05;0.60;;;14.20;99.90;;;;;;5107539;28;20059;-73
2023/10/16 05:22:02;;;;;;;0.63;0.50;;;14.10;99.90;;;;;;5107032;28;20494;-73
2023/10/16 06:14:13;;;;;;;4.22;0.88;;;14.10;1.00;;;;;;5102039;28;20066;-74
2023/10/16 06:16:53;;;;;;;0.75;0.55;;;14.10;1.00;;;;;;5102707;28;20447;-73
2023/10/16 06:19:19;;;;;;;4.97;0.80;;;14.20;1.00;;;;;;5101703;28;20020;-73
2023/10/16 06:21:49;;;;;;;0.73;0.50;;;14.20;1.00;;;;;;5104265;28;20584;-73
2023/10/16 06:24:25;;;;;;;5.35;0.85;;;14.20;1.00;;;;;;5103181;28;20039;-73
2023/10/16 06:26:55;;;;;;;1.17;0.50;;;14.20;1.00;;;;;;5075973;28;20107;-73
2023/10/16 06:29:24;;;;;;;4.50;0.80;;;14.30;1.00;;;;;;5101613;28;20051;-73
2023/10/16 06:31:53;;;;;;;3.30;0.60;;;14.30;1.00;;;;;;5085403;28;20155;-73
2023/10/16 06:34:22;;;;;;;2.05;0.50;;;14.30;1.00;;;;;;5112941;27;20044;-73
2023/10/16 06:36:51;;;;;;;1.77;0.60;;;14.30;1.00;;;;;;5125995;27;20016;-74
2023/10/16 06:39:27;;;;;;;1.17;0.73;;;14.30;1.00;;;;;;5115676;28;20028;-73
2023/10/16 06:41:54;;;;;;;3.30;0.82;;;14.30;1.00;;;;;;5107281;28;20023;-73
2023/10/16 06:44:28;;;;;;;5.80;0.90;;;14.40;1.00;;;;;;5114482;28;20022;-73
2023/10/16 06:46:58;;;;;;;1.65;0.55;;;14.40;1.00;;;;;;5110899;27;20024;-73
2023/10/16 06:49:28;;;;;;;4.25;1.10;;;14.40;1.00;;;;;;5116316;27;20022;-73
2023/10/16 06:51:56;;;;;;;5.00;1.10;;;14.40;1.00;;;;;;5115136;28;20123;-73
2023/10/16 06:54:24;;;;;;;2.35;0.90;;;14.40;1.00;;;;;;5096546;28;20027;-73
2023/10/16 06:56:49;;;;;;;3.13;1.00;;;14.40;1.00;;;;;;5095095;28;20837;-73
2023/10/16 06:59:16;;;;;;;4.10;1.00;;;14.40;1.00;;;;;;5114372;28;20023;-73
2023/10/16 07:01:46;;;;;;;3.55;0.68;;;14.50;1.00;;;;;;5105575;28;20106;-73
2023/10/16 07:04:14;;;;;;;4.18;1.50;;;14.50;1.00;;;;;;5113809;27;20034;-73
2023/10/16 07:06:42;;;;;;;1.52;1.00;;;14.60;1.00;;;;;;5114034;28;20026;-73
2023/10/16 07:09:09;;;;;;;1.73;1.27;;;14.60;99.90;;;;;;5121358;27;20482;-73
2023/10/16 07:11:35;;;;;;;2.08;1.15;;;14.60;99.90;;;;;;5114414;28;20031;-73
2023/10/16 07:14:01;;;;;;;3.30;1.05;;;14.70;99.90;;;;;;5116600;27;20072;-73
2023/10/16 07:16:28;;;;;;;3.00;1.00;;;14.70;99.90;;;;;;5127026;27;20390;-73
2023/10/16 07:18:57;;;;;;;1.50;0.70;;;14.80;99.90;;;;;;5114659;27;20022;-74
2023/10/16 07:21:24;;;;;;;1.35;0.85;;;14.80;99.90;;;;;;5091659;28;20020;-73
2023/10/16 07:23:53;;;;;;;2.35;1.10;;;14.90;99.90;;;;;;5091458;28;20383;-73
2023/10/16 07:26:19;;;;;;;4.55;1.08;;;14.90;99.90;;;;;;5117165;27;20057;-73
2023/10/16 07:28:51;;;;;;;1.67;1.20;;;14.90;99.90;;;;;;5123241;27;20487;-74
2023/10/16 07:31:17;;;;;;;3.30;1.63;;;15.00;99.90;;;;;;5118796;27;20024;-74
2023/10/16 07:33:50;;;;;;;2.22;1.10;;;15.10;99.90;;;;;;5120163;27;20048;-73
2023/10/16 07:36:17;;;;;;;2.92;0.90;;;15.10;99.90;;;;;;5117787;27;20152;-73
2023/10/16 07:38:48;;;;;;;2.10;0.98;;;15.20;99.90;;;;;;5115063;27;20028;-73
2023/10/16 07:41:18;;;;;;;7.88;1.05;;;15.20;99.90;;;;;;5105635;28;20103;-73
2023/10/16 07:43:46;;;;;;;2.15;0.50;;;15.30;99.90;;;;;;5111925;28;20367;-73
2023/10/16 07:48:51;;;;;;;2.50;0.80;;;15.40;99.90;;;;;;5121469;27;20063;-74
2023/10/16 07:51:25;;;;;;;0.40;0.40;;;15.50;99.90;;;;;;5103167;27;20328;-73
2023/10/16 07:53:51;;;;;;;1.27;0.70;;;15.50;99.90;;;;;;5107291;27;20020;-73
2023/10/16 07:56:30;;;;;;;1.65;0.82;;;15.60;99.90;;;;;;5114613;27;20015;-73
2023/10/16 07:59:06;;;;;;;5.00;0.75;;;15.70;93.90;;;;;;5112878;28;20016;-73
2023/10/16 08:01:45;;;;;;;3.05;0.80;;;15.70;21.10;;;;;;5112991;27;20467;-73
2023/10/16 08:04:51;;;;;;;1.05;0.60;;;15.80;23.60;;;;;;5116936;27;20031;-73
2023/10/16 08:07:04;;;;;;;0.77;0.70;;;15.90;1.00;;;;;;5109035;27;20030;-73
2023/10/16 08:14:54;;;;;;;3.08;0.60;;;16.10;1.00;;;;;;5101470;28;20428;-72
2023/10/16 08:17:26;;;;;;;5.40;0.88;;;16.20;1.00;;;;;;5102632;28;20020;-73
2023/10/16 08:19:52;;;;;;;3.45;0.77;;;16.20;1.00;;;;;;5112558;27;20019;-73
2023/10/16 08:22:22;;;;;;;4.55;1.20;;;16.20;1.00;;;;;;5105924;28;20462;-73
2023/10/16 08:24:57;;;;;;;3.60;0.95;;;16.30;1.00;;;;;;5104637;28;20031;-73
2023/10/16 08:30:18;;;;;;;1.08;0.60;;;16.40;99.90;;;;;;5116512;27;20038;-73
2023/10/16 08:35:19;;;;;;;3.15;0.75;;;16.60;1.00;;;;;;5117391;27;20039;-73
2023/10/16 08:37:57;;;;;;;0.88;0.75;;;16.60;99.90;;;;;;5109845;28;20157;-73
2023/10/16 08:40:32;;;;;;;2.05;0.60;;;16.70;99.90;;;;;;5122166;27;20071;-73
2023/10/16 08:43:00;;;;;;;2.78;0.82;;;16.70;99.90;;;;;;5114072;27;20020;-73
2023/10/16 08:45:32;;;;;;;3.50;0.77;;;16.70;99.90;;;;;;5118578;27;20027;-73
2023/10/16 08:47:58;;;;;;;1.98;0.70;;;16.80;99.90;;;;;;5115253;27;20035;-73
2023/10/16 08:50:49;;;;;;;4.90;0.60;;;16.90;99.90;;;;;;5108056;28;20023;-73
2023/10/16 08:53:30;;;;;;;1.58;0.50;;;16.90;99.90;;;;;;5119487;27;20622;-73
2023/10/16 08:56:09;;;;;;;1.75;0.50;;;16.90;99.90;;;;;;5108972;27;20073;-73
2023/10/16 08:58:41;;;;;;;1.00;0.55;;;16.90;99.90;;;;;;5095886;28;20020;-73
2023/10/16 09:01:07;;;;;;;0.95;0.50;;;17.00;99.90;;;;;;5112818;27;20051;-74
2023/10/16 09:03:54;;;;;;;0.77;0.60;;;17.00;99.90;;;;;;5115990;27;20023;-75
2023/10/16 09:06:24;;;;;;;1.65;0.55;;;17.10;99.90;;;;;;5111153;27;20034;-74
2023/10/16 09:08:50;;;;;;;2.45;0.95;;;17.10;99.90;;;;;;5113876;27;20111;-74
2023/10/16 09:11:18;;;;;;;0.70;0.70;;;17.10;99.90;;;;;;5115930;27;20026;-73
2023/10/16 09:13:49;;;;;;;2.70;0.40;;;17.10;99.90;;;;;;5110406;28;20069;-74
2023/10/16 09:16:15;;;;;;;0.98;0.43;;;17.10;99.90;;;;;;5110265;28;20018;-74
2023/10/16 09:18:45;;;;;;;0.70;0.60;;;17.20;99.90;;;;;;5115776;27;20100;-74
2023/10/16 09:21:13;;;;;;;0.50;0.50;;;17.20;99.90;;;;;;5091815;28;20027;-74
2023/10/16 09:23:53;;;;;;;2.63;0.70;;;17.20;99.90;;;;;;5106468;27;20061;-73
2023/10/16 09:26:23;;;;;;;2.65;0.82;;;17.20;99.90;;;;;;5112315;27;20102;-74
2023/10/16 09:28:53;;;;;;;1.15;0.63;;;17.30;99.90;;;;;;5127257;27;20023;-74
2023/10/16 09:31:19;;;;;;;1.33;0.70;;;17.30;99.90;;;;;;5095408;28;20076;-74
2023/10/16 09:33:48;;;;;;;0.80;0.60;;;17.30;99.90;;;;;;5131082;27;20047;-74
2023/10/16 09:36:18;;;;;;;2.42;0.60;;;17.30;99.90;;;;;;5102661;28;20028;-74
2023/10/16 09:38:46;;;;;;;0.93;0.73;;;17.30;99.90;;;;;;5120812;28;20543;-74
2023/10/16 09:43:56;;;;;;;2.03;0.57;;;17.50;99.90;;;;;;5112792;28;20032;-74
2023/10/16 09:49:14;;;;;;;2.25;0.60;;;17.50;99.90;;;;;;5104463;28;20479;-74
2023/10/16 09:51:44;;;;;;;3.08;0.52;;;17.60;99.90;;;;;;5097755;28;20034;-74
2023/10/16 09:54:11;;;;;;;0.52;0.52;;;17.60;99.90;;;;;;5118518;27;20024;-74
2023/10/16 09:56:39;;;;;;;1.05;0.60;;;17.60;99.90;;;;;;5121928;28;20528;-74
2023/10/16 09:59:12;;;;;;;0.95;0.63;;;17.60;99.90;;;;;;5118936;28;20026;-73
2023/10/16 10:01:44;;;;;;;0.55;0.40;;;17.70;99.90;;;;;;5090105;28;20028;-74
2023/10/16 10:04:12;;;;;;;0.30;0.22;;;17.70;99.90;;;;;;5091701;28;20033;-74
2023/10/16 10:06:42;;;;;;;1.17;0.70;;;17.80;99.90;;;;;;5115170;28;20012;-74
2023/10/16 10:12:14;;;;;;;0.65;0.50;;;17.90;99.90;;;;;;5111112;28;20038;-74
2023/10/16 10:15:01;;;;;;;1.13;0.63;;;17.90;99.90;;;;;;5113595;28;20382;-74
2023/10/16 10:17:30;;;;;;;0.77;0.60;;;17.90;99.90;;;;;;5119469;28;20493;-74
2023/10/16 10:19:55;;;;;;;0.40;0.40;;;17.90;99.90;;;;;;5119897;28;20031;-74
2023/10/16 10:22:28;;;;;;;1.00;0.60;;;18.00;99.90;;;;;;5093134;28;20020;-74
2023/10/16 10:25:24;;;;;;;0.40;0.40;;;18.00;99.90;;;;;;5121573;28;20031;-74
2023/10/16 10:27:53;;;;;;;3.00;0.60;;;18.10;99.90;;;;;;5092069;28;20399;-74
2023/10/16 10:30:25;;;;;;;1.77;0.55;;;18.00;99.90;;;;;;5110495;28;20099;-74
2023/10/16 10:32:59;;;;;;;0.98;0.50;;;17.90;99.90;;;;;;5122008;27;20031;-74
2023/10/16 10:35:38;;;;;;;0.60;0.45;;;18.00;99.90;;;;;;5125481;27;20035;-74
2023/10/16 10:38:30;;;;;;;0.60;0.50;;;17.90;99.90;;;;;;5119355;27;20177;-74
2023/10/16 10:41:08;;;;;;;0.63;0.47;;;17.90;99.90;;;;;;5101830;28;20236;-74
2023/10/16 10:43:50;;;;;;;0.50;0.50;;;18.00;99.90;;;;;;5092438;28;20123;-74
2023/10/16 10:46:24;;;;;;;1.25;0.30;;;17.90;99.90;;;;;;5118557;27;20102;-74
2023/10/16 10:48:49;;;;;;;1.45;0.50;;;17.90;99.90;;;;;;5101442;27;20019;-74
2023/10/16 10:51:16;;;;;;;0.40;0.40;;;18.00;99.90;;;;;;5123999;27;20028;-74
2023/10/16 10:53:56;;;;;;;4.90;0.85;;;18.00;99.90;;;;;;5124187;27;20073;-74
2023/10/16 10:56:22;;;;;;;1.42;0.40;;;18.20;99.90;;;;;;5098790;27;20402;-74
2023/10/16 10:58:48;;;;;;;0.30;0.30;;;18.20;99.90;;;;;;5124978;27;20015;-73
2023/10/16 11:01:26;;;;;;;1.13;0.68;;;18.30;99.90;;;;;;5124751;27;20024;-73
2023/10/16 11:03:56;;;;;;;1.65;0.47;;;18.30;99.90;;;;;;5117910;27;20027;-74
2023/10/16 11:06:39;;;;;;;2.47;0.50;;;18.30;99.90;;;;;;5095891;28;20042;-73
2023/10/16 11:09:11;;;;;;;1.40;0.90;;;18.30;99.90;;;;;;5116826;27;20022;-73
2023/10/16 11:11:40;;;;;;;2.45;0.60;;;18.30;99.90;;;;;;5122043;27;20026;-74
2023/10/16 11:14:07;;;;;;;1.35;0.50;;;18.20;99.90;;;;;;5122799;27;20363;-74
2023/10/16 11:16:45;;;;;;;0.68;0.50;;;18.20;99.90;;;;;;5125955;27;20026;-74
2023/10/16 11:19:11;;;;;;;0.68;0.52;;;18.30;99.90;;;;;;5121794;27;20024;-74
2023/10/16 11:21:43;;;;;;;0.57;0.47;;;18.30;99.90;;;;;;5113992;28;20474;-73
2023/10/16 11:24:11;;;;;;;2.20;0.50;;;18.30;99.90;;;;;;5117328;27;20454;-73
2023/10/16 11:26:38;;;;;;;1.67;0.73;;;18.30;99.90;;;;;;5106272;27;20045;-73
2023/10/16 11:29:04;;;;;;;0.82;0.52;;;18.40;99.90;;;;;;5113743;28;20026;-73
2023/10/16 11:31:31;;;;;;;0.60;0.60;;;18.30;99.90;;;;;;5113482;28;20042;-74
2023/10/16 11:34:01;;;;;;;0.40;0.40;;;18.30;99.90;;;;;;5109317;28;20092;-73
2023/10/16 11:36:31;;;;;;;0.85;0.60;;;18.30;99.90;;;;;;5118734;27;20026;-74
2023/10/16 11:39:03;;;;;;;0.68;0.50;;;18.40;99.90;;;;;;5122125;27;20046;-73
2023/10/16 11:41:33;;;;;;;3.45;0.57;;;18.30;99.90;;;;;;5120045;27;20783;-74
2023/10/16 11:44:13;;;;;;;0.40;0.40;;;18.30;99.90;;;;;;5109986;28;20031;-74
2023/10/16 11:46:51;;;;;;;1.45;0.50;;;18.30;99.90;;;;;;5111960;28;20023;-73
2023/10/16 11:51:51;;;;;;;0.90;0.57;;;18.40;99.90;;;;;;5112670;28;20479;-73
2023/10/16 11:54:22;;;;;;;6.88;1.00;;;18.30;99.90;;;;;;5111590;28;20076;-74
2023/10/16 11:56:50;;;;;;;3.03;0.80;;;18.30;99.90;;;;;;5112570;28;20485;-73
2023/10/16 11:59:19;;;;;;;1.10;0.65;;;18.20;99.90;;;;;;5113859;27;20321;-74
2023/10/16 12:01:45;;;;;;;0.77;0.77;;;18.30;99.90;;;;;;5089809;28;20028;-73
2023/10/16 12:04:16;;;;;;;2.63;0.80;;;18.20;99.90;;;;;;5092407;28;20395;-73
2023/10/16 12:06:45;;;;;;;0.60;0.60;;;18.30;99.90;;;;;;5118484;27;20023;-73
2023/10/16 12:09:19;;;;;;;2.50;1.00;;;18.30;99.90;;;;;;5112837;27;20020;-73
2023/10/16 12:11:46;;;;;;;2.42;0.80;;;18.30;99.90;;;;;;5091331;28;20105;-73
2023/10/16 12:14:14;;;;;;;1.75;0.80;;;18.40;99.90;;;;;;5112411;28;20027;-73
2023/10/16 12:16:47;;;;;;;1.05;0.82;;;18.30;99.90;;;;;;5099440;27;20020;-74
2023/10/16 12:19:14;;;;;;;2.05;0.90;;;18.30;99.90;;;;;;5116232;27;20016;-74
2023/10/16 12:21:41;;;;;;;0.80;0.80;;;18.20;99.90;;;;;;5112103;28;20382;-74
2023/10/16 12:24:08;;;;;;;4.82;0.80;;;18.20;99.90;;;;;;5112075;28;20020;-73
2023/10/16 12:26:34;;;;;;;6.70;1.15;;;18.30;99.90;;;;;;5111789;28;20076;-73
2023/10/16 12:29:01;;;;;;;3.83;1.00;;;18.30;99.90;;;;;;5115778;27;20076;-73
2023/10/16 12:31:26;;;;;;;0.82;0.70;;;18.30;99.90;;;;;;5076430;28;20371;-74
2023/10/16 12:33:52;;;;;;;3.42;0.82;;;18.30;99.90;;;;;;5103578;27;20100;-73
2023/10/16 12:36:19;;;;;;;1.35;0.82;;;18.40;99.90;;;;;;5119400;27;20015;-74
2023/10/16 12:38:45;;;;;;;1.45;0.77;;;18.40;99.90;;;;;;5098746;28;20091;-73
2023/10/16 12:41:10;;;;;;;1.15;0.80;;;18.40;99.90;;;;;;5112156;27;20011;-73
2023/10/16 12:43:36;;;;;;;4.72;0.85;;;18.30;99.90;;;;;;5093654;27;20438;-73
2023/10/16 12:46:03;;;;;;;2.15;0.80;;;18.20;99.90;;;;;;5112246;27;20023;-74
2023/10/16 12:48:29;;;;;;;2.83;0.63;;;18.20;99.90;;;;;;5111355;28;20024;-73
2023/10/16 12:51:00;;;;;;;1.50;0.93;;;18.00;99.90;;;;;;5111032;28;20012;-73
2023/10/16 12:53:35;;;;;;;2.80;0.60;;;18.10;99.90;;;;;;5110808;28;20077;-73
2023/10/16 12:56:00;;;;;;;1.73;0.80;;;18.10;99.90;;;;;;5109182;28;20034;-73
2023/10/16 12:58:27;;;;;;;3.00;0.88;;;18.00;99.90;;;;;;5114256;27;20398;-73
2023/10/16 13:00:52;;;;;;;1.95;1.02;;;18.10;99.90;;;;;;5110980;28;20020;-73
2023/10/16 13:03:20;;;;;;;4.13;0.88;;;18.10;99.90;;;;;;5116352;27;20489;-73
2023/10/16 13:05:48;;;;;;;1.95;1.00;;;18.20;99.90;;;;;;5092153;28;20075;-73
2023/10/16 13:08:16;;;;;;;2.13;0.80;;;18.10;99.90;;;;;;5117690;27;20102;-73
2023/10/16 13:10:43;;;;;;;1.05;0.70;;;18.10;99.90;;;;;;5081911;28;20028;-73
2023/10/16 13:13:09;;;;;;;2.30;0.57;;;18.10;99.90;;;;;;5110516;28;20015;-73
2023/10/16 13:15:35;;;;;;;1.42;0.70;;;18.10;99.90;;;;;;5112922;27;20517;-73
2023/10/16 13:18:01;;;;;;;4.43;0.88;;;18.10;99.90;;;;;;5102669;28;20483;-73
2023/10/16 13:20:27;;;;;;;1.90;0.80;;;18.20;99.90;;;;;;5123868;27;20019;-73
2023/10/16 13:22:57;;;;;;;2.30;1.05;;;18.20;99.90;;;;;;5115876;28;20023;-73
2023/10/16 13:25:31;;;;;;;3.15;0.65;;;18.10;99.90;;;;;;5111970;28;20032;-74
2023/10/16 13:27:58;;;;;;;2.33;0.57;;;18.20;99.90;;;;;;5104069;28;20015;-73
2023/10/16 13:30:25;;;;;;;2.22;0.77;;;18.10;99.90;;;;;;5111352;28;20027;-74
2023/10/16 13:32:52;;;;;;;2.63;0.77;;;18.10;99.90;;;;;;5122788;27;20015;-73
2023/10/16 13:35:20;;;;;;;2.60;0.90;;;18.00;99.90;;;;;;5121613;28;20436;-73
2023/10/16 13:37:47;;;;;;;3.20;1.15;;;17.90;99.90;;;;;;5108665;27;20024;-73
2023/10/16 13:40:20;;;;;;;3.30;0.90;;;17.90;99.90;;;;;;5080596;28;20024;-73
2023/10/16 13:42:50;;;;;;;4.20;1.10;;;17.90;99.90;;;;;;5103471;28;20058;-73
2023/10/16 13:45:17;;;;;;;2.15;1.20;;;17.90;99.90;;;;;;5088943;28;20088;-73
2023/10/16 13:57:47;;;;;;;4.28;1.10;;;17.80;99.90;;;;;;4682813;28;20164;-77
2023/10/16 14:00:31;;;;;;;5.15;1.20;;;17.80;99.90;;;;;;5092287;28;20064;-76
2023/10/16 14:05:52;;;;;;;1.95;0.93;;;17.70;99.90;;;;;;5077701;28;20315;-77
2023/10/16 14:08:41;;;;;;;2.88;0.77;;;17.80;99.90;;;;;;5079471;28;20119;-76
2023/10/16 14:11:11;;;;;;;3.45;1.00;;;17.80;99.90;;;;;;5080020;28;20029;-76
2023/10/16 14:13:40;;;;;;;2.37;1.10;;;17.70;99.90;;;;;;5088232;28;20473;-77
2023/10/16 14:16:10;;;;;;;5.10;1.05;;;17.70;99.90;;;;;;5080073;28;20319;-76
2023/10/16 14:18:42;;;;;;;1.98;0.95;;;17.80;99.90;;;;;;5071061;28;20031;-76
2023/10/16 14:21:10;;;;;;;2.88;1.10;;;17.80;99.90;;;;;;5081724;28;20067;-76
2023/10/16 14:23:38;;;;;;;6.93;1.10;;;17.80;99.90;;;;;;5088725;28;20027;-76
2023/10/16 14:26:10;;;;;;;7.78;0.98;;;17.80;99.90;;;;;;5079821;28;20029;-77
2023/10/16 14:28:54;;;;;;;5.28;1.40;;;17.80;99.90;;;;;;5084555;28;20016;-76
2023/10/16 14:31:21;;;;;;;4.00;0.90;;;17.70;99.90;;;;;;5097163;28;20024;-77
2023/10/16 14:33:49;;;;;;;5.68;1.20;;;17.70;99.90;;;;;;5097139;28;20048;-77
2023/10/16 14:36:18;;;;;;;6.18;1.10;;;17.70;99.90;;;;;;5081939;28;20091;-77
2023/10/16 14:38:44;;;;;;;3.60;1.77;;;17.70;99.90;;;;;;5063760;28;20021;-76
2023/10/16 14:41:15;;;;;;;9.68;1.10;;;17.60;99.90;;;;;;5082644;28;20024;-76
2023/10/16 14:43:45;;;;;;;2.67;1.17;;;17.50;99.90;;;;;;5082017;28;20021;-77
2023/10/16 14:46:11;;;;;;;4.55;1.20;;;17.50;99.90;;;;;;5081632;28;20265;-77
2023/10/16 14:48:44;;;;;;;3.08;0.90;;;17.60;99.90;;;;;;5086093;28;20429;-77
2023/10/16 14:51:15;;;;;;;4.25;1.50;;;17.60;99.90;;;;;;5080004;28;20032;-76
2023/10/16 14:53:50;;;;;;;5.13;1.40;;;17.70;99.90;;;;;;5079546;28;20375;-76
2023/10/16 14:56:19;;;;;;;3.33;1.90;;;17.60;99.90;;;;;;5080710;28;20044;-76
2023/10/16 14:58:47;;;;;;;4.25;1.35;;;17.60;99.90;;;;;;5086514;28;20502;-77
2023/10/16 15:01:16;;;;;;;5.35;1.50;;;17.60;99.90;;;;;;5081136;28;20116;-76
2023/10/16 15:03:47;;;;;;;5.13;1.95;;;17.70;99.90;;;;;;5096238;28;20024;-76
2023/10/16 15:06:15;;;;;;;2.80;1.33;;;17.60;99.90;;;;;;5080540;28;20013;-76
2023/10/16 15:08:44;;;;;;;2.60;1.30;;;17.50;99.90;;;;;;5097885;28;20024;-76
2023/10/16 15:11:12;;;;;;;4.53;1.08;;;17.50;99.90;;;;;;5082288;28;20031;-76
2023/10/16 15:13:39;;;;;;;9.60;1.10;;;17.50;99.90;;;;;;5084583;28;20035;-76
2023/10/16 15:16:07;;;;;;;3.60;1.27;;;17.40;99.90;;;;;;5082148;28;20023;-76